sensor_id;sensor_type;location;lat;lon;timestamp;temperature;humidity
18597;DHT22;9428;50.950;6.912;2023-04-03T00:00:30;5.70;99.90
18597;DHT22;9428;50.950;6.912;2023-04-03T00:03:19;5.70;99.90
18597;DHT22;9428;50.950;6.912;2023-04-03T00:06:06;5.80;99.90
18597;DHT22;9428;50.950;6.912;2023-04-03T00:08:56;5.80;99.90
18597;DHT22;9428;50.950;6.912;2023-04-03T00:11:43;5.90;99.90
18597;DHT22;9428;50.950;6.912;2023-04-03T00:14:30;5.50;99.90
18597;DHT22;9428;50.950;6.912;2023-04-03T00:17:17;5.60;99.90
18597;DHT22;9428;50.950;6.912;2023-04-03T00:20:05;5.10;99.90
18597;DHT22;9428;50.950;6.912;2023-04-03T00:22:53;5.60;99.90
18597;DHT22;9428;50.950;6.912;2023-04-03T00:25:42;5.50;99.90
18597;DHT22;9428;50.950;6.912;2023-04-03T00:28:29;5.20;99.90
18597;DHT22;9428;50.950;6.912;2023-04-03T00:31:16;5.30;99.90
18597;DHT22;9428;50.950;6.912;2023-04-03T00:34:04;5.50;99.90
18597;DHT22;9428;50.950;6.912;2023-04-03T00:36:51;5.30;99.90
18597;DHT22;9428;50.950;6.912;2023-04-03T00:39:38;5.10;99.90
18597;DHT22;9428;50.950;6.912;2023-04-03T00:42:27;5.40;99.90
18597;DHT22;9428;50.950;6.912;2023-04-03T00:45:30;5.30;99.90
18597;DHT22;9428;50.950;6.912;2023-04-03T00:48:20;5.00;99.90
18597;DHT22;9428;50.950;6.912;2023-04-03T00:51:12;5.20;99.90
18597;DHT22;9428;50.950;6.912;2023-04-03T00:54:02;5.10;99.90
18597;DHT22;9428;50.950;6.912;2023-04-03T00:56:51;5.20;99.90
18597;DHT22;9428;50.950;6.912;2023-04-03T00:59:44;5.30;99.90
18597;DHT22;9428;50.950;6.912;2023-04-03T01:02:33;5.50;99.90
18597;DHT22;9428;50.950;6.912;2023-04-03T01:05:21;5.30;99.90
18597;DHT22;9428;50.950;6.912;2023-04-03T01:08:09;5.50;99.90
18597;DHT22;9428;50.950;6.912;2023-04-03T01:10:57;5.40;99.90
18597;DHT22;9428;50.950;6.912;2023-04-03T01:13:44;5.40;99.90
18597;DHT22;9428;50.950;6.912;2023-04-03T01:16:33;5.00;99.90
18597;DHT22;9428;50.950;6.912;2023-04-03T01:19:21;4.90;99.90
18597;DHT22;9428;50.950;6.912;2023-04-03T01:22:19;5.00;99.90
18597;DHT22;9428;50.950;6.912;2023-04-03T01:25:11;4.90;99.90
18597;DHT22;9428;50.950;6.912;2023-04-03T01:27:58;5.20;99.90
18597;DHT22;9428;50.950;6.912;2023-04-03T01:30:47;5.40;99.90
18597;DHT22;9428;50.950;6.912;2023-04-03T01:33:38;5.10;99.90
18597;DHT22;9428;50.950;6.912;2023-04-03T01:36:27;5.50;99.90
18597;DHT22;9428;50.950;6.912;2023-04-03T01:39:15;5.00;99.90
18597;DHT22;9428;50.950;6.912;2023-04-03T01:42:02;4.90;99.90
18597;DHT22;9428;50.950;6.912;2023-04-03T01:44:50;4.80;99.90
18597;DHT22;9428;50.950;6.912;2023-04-03T01:47:37;5.30;99.90
18597;DHT22;9428;50.950;6.912;2023-04-03T01:50:26;4.80;99.90
18597;DHT22;9428;50.950;6.912;2023-04-03T01:53:13;5.00;99.90
18597;DHT22;9428;50.950;6.912;2023-04-03T01:56:00;4.50;99.90
18597;DHT22;9428;50.950;6.912;2023-04-03T01:58:48;4.40;99.90
18597;DHT22;9428;50.950;6.912;2023-04-03T02:01:35;4.20;99.90
18597;DHT22;9428;50.950;6.912;2023-04-03T02:04:22;4.60;99.90
18597;DHT22;9428;50.950;6.912;2023-04-03T02:07:11;4.30;99.90
18597;DHT22;9428;50.950;6.912;2023-04-03T02:09:58;4.90;99.90
18597;DHT22;9428;50.950;6.912;2023-04-03T02:12:46;5.00;99.90
18597;DHT22;9428;50.950;6.912;2023-04-03T02:15:33;4.60;99.90
18597;DHT22;9428;50.950;6.912;2023-04-03T02:18:21;5.20;99.90
18597;DHT22;9428;50.950;6.912;2023-04-03T02:21:08;4.20;99.90
18597;DHT22;9428;50.950;6.912;2023-04-03T02:23:57;4.30;99.90
18597;DHT22;9428;50.950;6.912;2023-04-03T02:26:44;4.20;99.90
18597;DHT22;9428;50.950;6.912;2023-04-03T02:29:31;4.30;99.90
18597;DHT22;9428;50.950;6.912;2023-04-03T02:32:19;4.40;99.90
18597;DHT22;9428;50.950;6.912;2023-04-03T02:35:06;4.40;99.90
18597;DHT22;9428;50.950;6.912;2023-04-03T02:37:54;4.30;99.90
18597;DHT22;9428;50.950;6.912;2023-04-03T02:40:42;4.30;99.90
18597;DHT22;9428;50.950;6.912;2023-04-03T02:43:30;4.30;99.90
18597;DHT22;9428;50.950;6.912;2023-04-03T02:46:17;4.40;99.90
18597;DHT22;9428;50.950;6.912;2023-04-03T02:49:04;4.30;99.90
18597;DHT22;9428;50.950;6.912;2023-04-03T02:51:52;4.30;99.90
18597;DHT22;9428;50.950;6.912;2023-04-03T02:54:39;4.30;99.90
18597;DHT22;9428;50.950;6.912;2023-04-03T02:57:28;4.00;99.90
18597;DHT22;9428;50.950;6.912;2023-04-03T03:00:15;3.90;99.90
18597;DHT22;9428;50.950;6.912;2023-04-03T03:03:03;4.10;99.90
18597;DHT22;9428;50.950;6.912;2023-04-03T03:05:50;4.10;99.90
18597;DHT22;9428;50.950;6.912;2023-04-03T03:08:47;4.50;99.90
18597;DHT22;9428;50.950;6.912;2023-04-03T03:11:34;3.80;99.90
18597;DHT22;9428;50.950;6.912;2023-04-03T03:14:22;4.10;99.90
18597;DHT22;9428;50.950;6.912;2023-04-03T03:17:10;4.50;99.90
18597;DHT22;9428;50.950;6.912;2023-04-03T03:19:57;4.00;99.90
18597;DHT22;9428;50.950;6.912;2023-04-03T03:22:44;4.10;99.90
18597;DHT22;9428;50.950;6.912;2023-04-03T03:25:31;4.00;99.90
18597;DHT22;9428;50.950;6.912;2023-04-03T03:28:18;4.10;99.90
18597;DHT22;9428;50.950;6.912;2023-04-03T03:31:08;4.00;99.90
18597;DHT22;9428;50.950;6.912;2023-04-03T03:33:55;4.20;99.90
18597;DHT22;9428;50.950;6.912;2023-04-03T03:36:43;4.00;99.90
18597;DHT22;9428;50.950;6.912;2023-04-03T03:39:30;4.10;99.90
18597;DHT22;9428;50.950;6.912;2023-04-03T03:42:17;4.90;99.90
18597;DHT22;9428;50.950;6.912;2023-04-03T03:45:06;4.20;99.90
18597;DHT22;9428;50.950;6.912;2023-04-03T03:47:55;3.90;99.90
18597;DHT22;9428;50.950;6.912;2023-04-03T03:50:42;4.10;99.90
18597;DHT22;9428;50.950;6.912;2023-04-03T03:53:29;3.90;99.90
18597;DHT22;9428;50.950;6.912;2023-04-03T03:56:16;4.20;99.90
18597;DHT22;9428;50.950;6.912;2023-04-03T03:59:03;5.10;99.90
18597;DHT22;9428;50.950;6.912;2023-04-03T04:01:51;5.00;99.90
18597;DHT22;9428;50.950;6.912;2023-04-03T04:04:39;4.60;99.90
18597;DHT22;9428;50.950;6.912;2023-04-03T04:07:26;4.70;99.90
18597;DHT22;9428;50.950;6.912;2023-04-03T04:10:15;3.90;99.90
18597;DHT22;9428;50.950;6.912;2023-04-03T04:13:02;4.00;99.90
18597;DHT22;9428;50.950;6.912;2023-04-03T04:15:49;4.10;99.90
18597;DHT22;9428;50.950;6.912;2023-04-03T04:18:36;4.00;99.90
18597;DHT22;9428;50.950;6.912;2023-04-03T04:21:25;4.20;99.90
18597;DHT22;9428;50.950;6.912;2023-04-03T04:24:12;4.80;99.90
18597;DHT22;9428;50.950;6.912;2023-04-03T04:26:59;3.70;99.90
18597;DHT22;9428;50.950;6.912;2023-04-03T04:29:47;4.50;99.90
18597;DHT22;9428;50.950;6.912;2023-04-03T04:32:34;3.90;99.90
18597;DHT22;9428;50.950;6.912;2023-04-03T04:35:21;4.40;99.90
18597;DHT22;9428;50.950;6.912;2023-04-03T04:38:10;4.00;99.90
18597;DHT22;9428;50.950;6.912;2023-04-03T04:40:57;4.70;99.90
18597;DHT22;9428;50.950;6.912;2023-04-03T04:43:44;4.10;99.90
18597;DHT22;9428;50.950;6.912;2023-04-03T04:46:31;4.10;99.90
18597;DHT22;9428;50.950;6.912;2023-04-03T04:49:19;4.60;99.90
18597;DHT22;9428;50.950;6.912;2023-04-03T04:52:06;4.10;99.90
18597;DHT22;9428;50.950;6.912;2023-04-03T04:54:54;4.10;99.90
18597;DHT22;9428;50.950;6.912;2023-04-03T04:57:42;4.00;99.90
18597;DHT22;9428;50.950;6.912;2023-04-03T05:00:29;4.00;99.90
18597;DHT22;9428;50.950;6.912;2023-04-03T05:03:16;4.00;99.90
18597;DHT22;9428;50.950;6.912;2023-04-03T05:06:03;4.30;99.90
18597;DHT22;9428;50.950;6.912;2023-04-03T05:08:51;4.10;99.90
18597;DHT22;9428;50.950;6.912;2023-04-03T05:11:39;4.40;99.90
18597;DHT22;9428;50.950;6.912;2023-04-03T05:14:26;4.10;99.90
18597;DHT22;9428;50.950;6.912;2023-04-03T05:17:14;4.10;99.90
18597;DHT22;9428;50.950;6.912;2023-04-03T05:20:01;4.20;99.90
18597;DHT22;9428;50.950;6.912;2023-04-03T05:22:49;4.30;99.90
18597;DHT22;9428;50.950;6.912;2023-04-03T05:25:37;4.70;99.90
18597;DHT22;9428;50.950;6.912;2023-04-03T05:28:26;4.10;99.90
18597;DHT22;9428;50.950;6.912;2023-04-03T05:31:13;3.90;99.90
18597;DHT22;9428;50.950;6.912;2023-04-03T05:34:01;4.00;99.90
18597;DHT22;9428;50.950;6.912;2023-04-03T05:36:48;3.90;99.90
18597;DHT22;9428;50.950;6.912;2023-04-03T05:39:35;4.10;99.90
18597;DHT22;9428;50.950;6.912;2023-04-03T05:42:24;4.20;99.90
18597;DHT22;9428;50.950;6.912;2023-04-03T05:45:12;4.30;99.90
18597;DHT22;9428;50.950;6.912;2023-04-03T05:48:00;4.20;99.90
18597;DHT22;9428;50.950;6.912;2023-04-03T05:50:47;4.40;99.90
18597;DHT22;9428;50.950;6.912;2023-04-03T05:53:36;3.90;99.90
18597;DHT22;9428;50.950;6.912;2023-04-03T05:56:23;4.10;99.90
18597;DHT22;9428;50.950;6.912;2023-04-03T05:59:11;4.40;99.90
18597;DHT22;9428;50.950;6.912;2023-04-03T06:02:00;4.40;99.90
18597;DHT22;9428;50.950;6.912;2023-04-03T06:04:48;4.60;99.90
18597;DHT22;9428;50.950;6.912;2023-04-03T06:07:35;4.10;99.90
18597;DHT22;9428;50.950;6.912;2023-04-03T06:10:22;4.50;99.90
18597;DHT22;9428;50.950;6.912;2023-04-03T06:13:09;5.00;99.90
18597;DHT22;9428;50.950;6.912;2023-04-03T06:15:57;4.00;99.90
18597;DHT22;9428;50.950;6.912;2023-04-03T06:18:45;4.10;99.90
18597;DHT22;9428;50.950;6.912;2023-04-03T06:21:33;4.20;99.90
18597;DHT22;9428;50.950;6.912;2023-04-03T06:24:21;4.30;99.90
18597;DHT22;9428;50.950;6.912;2023-04-03T06:27:10;4.30;99.90
18597;DHT22;9428;50.950;6.912;2023-04-03T06:29:58;4.60;99.90
18597;DHT22;9428;50.950;6.912;2023-04-03T06:32:45;4.40;99.90
18597;DHT22;9428;50.950;6.912;2023-04-03T06:35:34;4.40;99.90
18597;DHT22;9428;50.950;6.912;2023-04-03T06:38:21;4.80;99.90
18597;DHT22;9428;50.950;6.912;2023-04-03T06:41:08;4.30;99.90
18597;DHT22;9428;50.950;6.912;2023-04-03T06:43:55;4.30;99.90
18597;DHT22;9428;50.950;6.912;2023-04-03T06:46:44;4.60;99.90
18597;DHT22;9428;50.950;6.912;2023-04-03T06:49:32;4.60;99.90
18597;DHT22;9428;50.950;6.912;2023-04-03T06:52:20;4.60;99.90
18597;DHT22;9428;50.950;6.912;2023-04-03T06:55:08;4.70;99.90
18597;DHT22;9428;50.950;6.912;2023-04-03T06:57:56;4.50;99.90
18597;DHT22;9428;50.950;6.912;2023-04-03T07:00:43;5.20;99.90
18597;DHT22;9428;50.950;6.912;2023-04-03T07:03:31;4.80;99.90
18597;DHT22;9428;50.950;6.912;2023-04-03T07:06:18;5.40;99.90
18597;DHT22;9428;50.950;6.912;2023-04-03T07:09:07;5.10;99.90
18597;DHT22;9428;50.950;6.912;2023-04-03T07:11:55;5.00;99.90
18597;DHT22;9428;50.950;6.912;2023-04-03T07:14:42;4.90;99.90
18597;DHT22;9428;50.950;6.912;2023-04-03T07:17:29;5.60;99.90
18597;DHT22;9428;50.950;6.912;2023-04-03T07:20:17;5.20;99.90
18597;DHT22;9428;50.950;6.912;2023-04-03T07:23:04;4.90;99.90
18597;DHT22;9428;50.950;6.912;2023-04-03T07:25:53;5.10;99.90
18597;DHT22;9428;50.950;6.912;2023-04-03T07:28:41;5.20;99.90
18597;DHT22;9428;50.950;6.912;2023-04-03T07:31:30;5.20;99.90
18597;DHT22;9428;50.950;6.912;2023-04-03T07:34:17;5.20;99.90
18597;DHT22;9428;50.950;6.912;2023-04-03T07:37:04;5.60;99.90
18597;DHT22;9428;50.950;6.912;2023-04-03T07:39:52;5.50;99.90
18597;DHT22;9428;50.950;6.912;2023-04-03T07:42:42;5.20;99.90
18597;DHT22;9428;50.950;6.912;2023-04-03T07:45:29;5.30;99.90
18597;DHT22;9428;50.950;6.912;2023-04-03T07:48:17;5.30;99.90
18597;DHT22;9428;50.950;6.912;2023-04-03T07:51:05;5.40;99.90
18597;DHT22;9428;50.950;6.912;2023-04-03T07:53:53;5.60;99.90
18597;DHT22;9428;50.950;6.912;2023-04-03T07:56:40;5.50;99.90
18597;DHT22;9428;50.950;6.912;2023-04-03T07:59:30;5.50;99.90
18597;DHT22;9428;50.950;6.912;2023-04-03T08:02:17;5.40;99.90
18597;DHT22;9428;50.950;6.912;2023-04-03T08:05:05;5.50;99.90
18597;DHT22;9428;50.950;6.912;2023-04-03T08:07:52;5.70;99.90
18597;DHT22;9428;50.950;6.912;2023-04-03T08:10:40;5.90;99.90
18597;DHT22;9428;50.950;6.912;2023-04-03T08:13:29;5.80;99.90
18597;DHT22;9428;50.950;6.912;2023-04-03T08:16:20;5.60;99.90
18597;DHT22;9428;50.950;6.912;2023-04-03T08:19:08;5.50;99.90
18597;DHT22;9428;50.950;6.912;2023-04-03T08:21:56;5.70;99.90
18597;DHT22;9428;50.950;6.912;2023-04-03T08:24:44;5.80;99.90
18597;DHT22;9428;50.950;6.912;2023-04-03T08:27:31;6.20;99.90
18597;DHT22;9428;50.950;6.912;2023-04-03T08:30:19;5.80;99.90
18597;DHT22;9428;50.950;6.912;2023-04-03T08:33:08;5.60;99.90
18597;DHT22;9428;50.950;6.912;2023-04-03T08:35:56;5.80;99.90
18597;DHT22;9428;50.950;6.912;2023-04-03T08:38:43;6.80;99.90
18597;DHT22;9428;50.950;6.912;2023-04-03T08:41:32;6.00;99.90
18597;DHT22;9428;50.950;6.912;2023-04-03T08:44:25;6.10;99.90
18597;DHT22;9428;50.950;6.912;2023-04-03T08:47:20;5.80;99.90
18597;DHT22;9428;50.950;6.912;2023-04-03T08:50:14;6.00;99.90
18597;DHT22;9428;50.950;6.912;2023-04-03T08:53:03;6.00;99.90
18597;DHT22;9428;50.950;6.912;2023-04-03T08:55:53;6.00;99.90
18597;DHT22;9428;50.950;6.912;2023-04-03T08:58:45;6.30;99.90
18597;DHT22;9428;50.950;6.912;2023-04-03T09:01:36;6.70;99.90
18597;DHT22;9428;50.950;6.912;2023-04-03T09:04:24;6.40;99.90
18597;DHT22;9428;50.950;6.912;2023-04-03T09:07:20;6.40;99.90
18597;DHT22;9428;50.950;6.912;2023-04-03T09:10:12;6.40;99.90
18597;DHT22;9428;50.950;6.912;2023-04-03T09:13:05;6.40;99.90
18597;DHT22;9428;50.950;6.912;2023-04-03T09:15:55;6.70;99.90
18597;DHT22;9428;50.950;6.912;2023-04-03T09:18:45;6.70;99.90
18597;DHT22;9428;50.950;6.912;2023-04-03T09:21:38;6.80;99.90
18597;DHT22;9428;50.950;6.912;2023-04-03T09:24:31;6.80;99.90
18597;DHT22;9428;50.950;6.912;2023-04-03T09:27:19;7.40;99.90
18597;DHT22;9428;50.950;6.912;2023-04-03T09:30:13;6.80;99.90
18597;DHT22;9428;50.950;6.912;2023-04-03T09:33:02;7.40;99.90
18597;DHT22;9428;50.950;6.912;2023-04-03T09:35:50;7.00;99.90
18597;DHT22;9428;50.950;6.912;2023-04-03T09:38:37;7.00;99.90
18597;DHT22;9428;50.950;6.912;2023-04-03T09:41:26;7.00;99.90
18597;DHT22;9428;50.950;6.912;2023-04-03T09:44:22;7.00;99.90
18597;DHT22;9428;50.950;6.912;2023-04-03T09:47:19;7.20;99.90
18597;DHT22;9428;50.950;6.912;2023-04-03T09:50:20;7.10;99.90
18597;DHT22;9428;50.950;6.912;2023-04-03T09:53:27;7.20;99.90
18597;DHT22;9428;50.950;6.912;2023-04-03T09:56:23;7.20;99.90
18597;DHT22;9428;50.950;6.912;2023-04-03T09:59:15;7.30;99.90
18597;DHT22;9428;50.950;6.912;2023-04-03T10:02:23;7.30;99.90
18597;DHT22;9428;50.950;6.912;2023-04-03T10:05:32;7.50;99.90
18597;DHT22;9428;50.950;6.912;2023-04-03T10:08:22;7.60;99.90
18597;DHT22;9428;50.950;6.912;2023-04-03T10:11:15;7.60;99.90
18597;DHT22;9428;50.950;6.912;2023-04-03T10:14:04;7.70;97.50
18597;DHT22;9428;50.950;6.912;2023-04-03T10:16:56;7.70;94.50
18597;DHT22;9428;50.950;6.912;2023-04-03T10:19:49;7.60;95.10
18597;DHT22;9428;50.950;6.912;2023-04-03T10:22:48;7.60;95.20
18597;DHT22;9428;50.950;6.912;2023-04-03T10:25:42;7.70;93.50
18597;DHT22;9428;50.950;6.912;2023-04-03T10:28:34;7.80;92.30
18597;DHT22;9428;50.950;6.912;2023-04-03T10:31:26;8.00;93.00
18597;DHT22;9428;50.950;6.912;2023-04-03T10:34:21;8.20;91.50
18597;DHT22;9428;50.950;6.912;2023-04-03T10:37:16;7.90;90.20
18597;DHT22;9428;50.950;6.912;2023-04-03T10:40:18;8.20;90.00
18597;DHT22;9428;50.950;6.912;2023-04-03T10:43:12;7.80;91.90
18597;DHT22;9428;50.950;6.912;2023-04-03T10:46:04;8.30;92.20
18597;DHT22;9428;50.950;6.912;2023-04-03T10:49:05;8.00;91.50
18597;DHT22;9428;50.950;6.912;2023-04-03T10:52:05;8.50;88.50
18597;DHT22;9428;50.950;6.912;2023-04-03T10:54:59;8.30;90.60
18597;DHT22;9428;50.950;6.912;2023-04-03T10:57:50;8.10;90.10
18597;DHT22;9428;50.950;6.912;2023-04-03T11:00:40;8.80;87.80
18597;DHT22;9428;50.950;6.912;2023-04-03T11:03:31;8.10;87.80
18597;DHT22;9428;50.950;6.912;2023-04-03T11:06:21;8.10;89.30
18597;DHT22;9428;50.950;6.912;2023-04-03T11:09:19;8.10;88.50
18597;DHT22;9428;50.950;6.912;2023-04-03T11:12:12;8.00;87.70
18597;DHT22;9428;50.950;6.912;2023-04-03T11:15:02;8.20;88.80
18597;DHT22;9428;50.950;6.912;2023-04-03T11:17:53;8.40;88.20
18597;DHT22;9428;50.950;6.912;2023-04-03T11:20:43;8.40;85.70
18597;DHT22;9428;50.950;6.912;2023-04-03T11:23:34;8.40;87.50
18597;DHT22;9428;50.950;6.912;2023-04-03T11:26:26;8.40;87.40
18597;DHT22;9428;50.950;6.912;2023-04-03T11:29:17;8.70;87.90
18597;DHT22;9428;50.950;6.912;2023-04-03T11:32:26;8.40;85.60
18597;DHT22;9428;50.950;6.912;2023-04-03T11:35:17;8.40;83.50
18597;DHT22;9428;50.950;6.912;2023-04-03T11:38:05;8.50;83.80
18597;DHT22;9428;50.950;6.912;2023-04-03T11:40:54;8.40;85.50
18597;DHT22;9428;50.950;6.912;2023-04-03T11:43:56;8.60;84.80
18597;DHT22;9428;50.950;6.912;2023-04-03T11:46:52;8.60;86.20
18597;DHT22;9428;50.950;6.912;2023-04-03T11:49:57;8.50;83.00
18597;DHT22;9428;50.950;6.912;2023-04-03T11:53:02;8.80;85.40
18597;DHT22;9428;50.950;6.912;2023-04-03T11:55:58;8.50;86.40
18597;DHT22;9428;50.950;6.912;2023-04-03T11:59:14;8.90;87.20
18597;DHT22;9428;50.950;6.912;2023-04-03T12:02:35;8.70;86.90
18597;DHT22;9428;50.950;6.912;2023-04-03T12:05:28;8.60;84.80
18597;DHT22;9428;50.950;6.912;2023-04-03T12:08:24;8.60;85.20
18597;DHT22;9428;50.950;6.912;2023-04-03T12:11:19;8.80;85.40
18597;DHT22;9428;50.950;6.912;2023-04-03T12:14:15;8.90;83.10
18597;DHT22;9428;50.950;6.912;2023-04-03T12:17:12;9.00;84.10
18597;DHT22;9428;50.950;6.912;2023-04-03T12:23:30;9.00;80.90
18597;DHT22;9428;50.950;6.912;2023-04-03T12:26:21;9.00;80.70
18597;DHT22;9428;50.950;6.912;2023-04-03T12:29:16;9.00;79.50
18597;DHT22;9428;50.950;6.912;2023-04-03T12:32:10;8.90;77.20
18597;DHT22;9428;50.950;6.912;2023-04-03T12:35:14;8.80;77.50
18597;DHT22;9428;50.950;6.912;2023-04-03T12:38:26;8.90;80.30
18597;DHT22;9428;50.950;6.912;2023-04-03T12:41:25;9.10;80.40
18597;DHT22;9428;50.950;6.912;2023-04-03T12:44:38;8.70;79.20
18597;DHT22;9428;50.950;6.912;2023-04-03T12:47:29;9.00;79.10
18597;DHT22;9428;50.950;6.912;2023-04-03T12:50:23;8.90;80.30
18597;DHT22;9428;50.950;6.912;2023-04-03T12:53:13;9.30;82.00
18597;DHT22;9428;50.950;6.912;2023-04-03T12:56:20;9.20;79.70
18597;DHT22;9428;50.950;6.912;2023-04-03T12:59:16;9.10;82.10
18597;DHT22;9428;50.950;6.912;2023-04-03T13:02:16;9.10;80.30
18597;DHT22;9428;50.950;6.912;2023-04-03T13:05:06;9.00;78.50
18597;DHT22;9428;50.950;6.912;2023-04-03T13:07:58;9.00;77.10
18597;DHT22;9428;50.950;6.912;2023-04-03T13:10:52;8.80;77.50
18597;DHT22;9428;50.950;6.912;2023-04-03T13:13:40;9.50;77.20
18597;DHT22;9428;50.950;6.912;2023-04-03T13:16:40;9.10;73.60
18597;DHT22;9428;50.950;6.912;2023-04-03T13:19:30;9.20;76.70
18597;DHT22;9428;50.950;6.912;2023-04-03T13:22:27;9.10;73.40
18597;DHT22;9428;50.950;6.912;2023-04-03T13:25:17;9.40;73.60
18597;DHT22;9428;50.950;6.912;2023-04-03T13:28:09;9.20;72.60
18597;DHT22;9428;50.950;6.912;2023-04-03T13:31:08;9.10;73.80
18597;DHT22;9428;50.950;6.912;2023-04-03T13:34:01;9.30;71.70
18597;DHT22;9428;50.950;6.912;2023-04-03T13:36:57;9.50;70.20
18597;DHT22;9428;50.950;6.912;2023-04-03T13:39:45;9.30;69.80
18597;DHT22;9428;50.950;6.912;2023-04-03T13:42:43;9.30;71.20
18597;DHT22;9428;50.950;6.912;2023-04-03T13:45:31;9.40;73.40
18597;DHT22;9428;50.950;6.912;2023-04-03T13:48:19;9.50;71.50
18597;DHT22;9428;50.950;6.912;2023-04-03T13:51:19;9.30;72.60
18597;DHT22;9428;50.950;6.912;2023-04-03T13:54:18;9.30;72.90
18597;DHT22;9428;50.950;6.912;2023-04-03T13:57:13;9.60;72.70
18597;DHT22;9428;50.950;6.912;2023-04-03T14:00:21;9.40;73.10
18597;DHT22;9428;50.950;6.912;2023-04-03T14:03:19;9.40;72.70
18597;DHT22;9428;50.950;6.912;2023-04-03T14:06:12;10.20;73.10
18597;DHT22;9428;50.950;6.912;2023-04-03T14:08:59;9.40;74.00
18597;DHT22;9428;50.950;6.912;2023-04-03T14:11:49;9.50;75.00
18597;DHT22;9428;50.950;6.912;2023-04-03T14:14:37;9.30;74.30
18597;DHT22;9428;50.950;6.912;2023-04-03T14:17:27;9.30;74.80
18597;DHT22;9428;50.950;6.912;2023-04-03T14:20:15;9.30;75.30
18597;DHT22;9428;50.950;6.912;2023-04-03T14:23:03;9.30;76.10
18597;DHT22;9428;50.950;6.912;2023-04-03T14:25:50;9.90;76.80
18597;DHT22;9428;50.950;6.912;2023-04-03T14:28:39;9.40;77.90
18597;DHT22;9428;50.950;6.912;2023-04-03T14:31:27;9.50;77.30
18597;DHT22;9428;50.950;6.912;2023-04-03T14:34:15;9.50;77.80
18597;DHT22;9428;50.950;6.912;2023-04-03T14:37:04;9.40;77.50
18597;DHT22;9428;50.950;6.912;2023-04-03T14:39:52;9.40;78.90
18597;DHT22;9428;50.950;6.912;2023-04-03T14:42:39;9.40;78.70
18597;DHT22;9428;50.950;6.912;2023-04-03T14:45:28;9.50;79.50
18597;DHT22;9428;50.950;6.912;2023-04-03T14:48:19;9.40;79.90
18597;DHT22;9428;50.950;6.912;2023-04-03T14:51:08;9.40;79.50
18597;DHT22;9428;50.950;6.912;2023-04-03T14:53:56;9.40;79.50
18597;DHT22;9428;50.950;6.912;2023-04-03T14:56:43;9.40;79.90
18597;DHT22;9428;50.950;6.912;2023-04-03T14:59:31;9.80;80.40
18597;DHT22;9428;50.950;6.912;2023-04-03T15:02:30;9.50;81.30
18597;DHT22;9428;50.950;6.912;2023-04-03T15:05:18;10.00;80.20
18597;DHT22;9428;50.950;6.912;2023-04-03T15:08:19;9.50;81.20
18597;DHT22;9428;50.950;6.912;2023-04-03T15:11:08;9.60;79.90
18597;DHT22;9428;50.950;6.912;2023-04-03T15:13:55;9.60;78.80
18597;DHT22;9428;50.950;6.912;2023-04-03T15:16:43;9.60;78.10
18597;DHT22;9428;50.950;6.912;2023-04-03T15:19:35;9.90;77.30
18597;DHT22;9428;50.950;6.912;2023-04-03T15:22:23;9.50;80.30
18597;DHT22;9428;50.950;6.912;2023-04-03T15:25:11;9.50;80.00
18597;DHT22;9428;50.950;6.912;2023-04-03T15:27:58;9.30;81.30
18597;DHT22;9428;50.950;6.912;2023-04-03T15:30:46;9.50;81.80
18597;DHT22;9428;50.950;6.912;2023-04-03T15:33:34;9.60;82.30
18597;DHT22;9428;50.950;6.912;2023-04-03T15:36:23;9.40;82.80
18597;DHT22;9428;50.950;6.912;2023-04-03T15:39:10;9.50;80.90
18597;DHT22;9428;50.950;6.912;2023-04-03T15:41:57;9.40;79.90
18597;DHT22;9428;50.950;6.912;2023-04-03T15:44:49;9.50;81.30
18597;DHT22;9428;50.950;6.912;2023-04-03T15:47:37;9.50;81.20
18597;DHT22;9428;50.950;6.912;2023-04-03T15:50:24;9.30;81.90
18597;DHT22;9428;50.950;6.912;2023-04-03T15:53:13;9.40;83.30
18597;DHT22;9428;50.950;6.912;2023-04-03T15:56:00;9.60;82.60
18597;DHT22;9428;50.950;6.912;2023-04-03T15:58:48;9.30;83.10
18597;DHT22;9428;50.950;6.912;2023-04-03T16:01:36;9.30;83.70
18597;DHT22;9428;50.950;6.912;2023-04-03T16:04:23;9.60;83.70
18597;DHT22;9428;50.950;6.912;2023-04-03T16:07:10;9.60;85.80
18597;DHT22;9428;50.950;6.912;2023-04-03T16:09:59;9.60;81.30
18597;DHT22;9428;50.950;6.912;2023-04-03T16:12:46;9.50;82.10
18597;DHT22;9428;50.950;6.912;2023-04-03T16:15:35;9.50;83.30
18597;DHT22;9428;50.950;6.912;2023-04-03T16:18:23;9.40;84.30
18597;DHT22;9428;50.950;6.912;2023-04-03T16:21:10;9.30;82.90
18597;DHT22;9428;50.950;6.912;2023-04-03T16:23:57;10.10;82.60
18597;DHT22;9428;50.950;6.912;2023-04-03T16:26:46;9.40;83.50
18597;DHT22;9428;50.950;6.912;2023-04-03T16:29:33;9.40;84.20
18597;DHT22;9428;50.950;6.912;2023-04-03T16:32:21;9.20;84.20
18597;DHT22;9428;50.950;6.912;2023-04-03T16:35:09;9.20;85.70
18597;DHT22;9428;50.950;6.912;2023-04-03T16:37:57;9.70;85.70
18597;DHT22;9428;50.950;6.912;2023-04-03T16:40:44;9.20;85.80
18597;DHT22;9428;50.950;6.912;2023-04-03T16:43:33;9.20;86.20
18597;DHT22;9428;50.950;6.912;2023-04-03T16:46:21;9.30;85.50
18597;DHT22;9428;50.950;6.912;2023-04-03T16:49:08;9.20;85.40
18597;DHT22;9428;50.950;6.912;2023-04-03T16:51:55;9.10;85.30
18597;DHT22;9428;50.950;6.912;2023-04-03T16:54:42;9.20;85.40
18597;DHT22;9428;50.950;6.912;2023-04-03T16:57:30;9.20;85.40
18597;DHT22;9428;50.950;6.912;2023-04-03T17:00:19;9.40;86.50
18597;DHT22;9428;50.950;6.912;2023-04-03T17:03:06;9.10;85.30
18597;DHT22;9428;50.950;6.912;2023-04-03T17:05:53;9.00;85.50
18597;DHT22;9428;50.950;6.912;2023-04-03T17:08:41;9.00;86.10
18597;DHT22;9428;50.950;6.912;2023-04-03T17:11:28;8.90;85.80
18597;DHT22;9428;50.950;6.912;2023-04-03T17:14:16;8.90;87.00
18597;DHT22;9428;50.950;6.912;2023-04-03T17:17:05;8.90;87.80
18597;DHT22;9428;50.950;6.912;2023-04-03T17:19:54;9.00;86.70
18597;DHT22;9428;50.950;6.912;2023-04-03T17:22:41;8.90;86.80
18597;DHT22;9428;50.950;6.912;2023-04-03T17:25:30;9.70;88.40
18597;DHT22;9428;50.950;6.912;2023-04-03T17:28:17;9.60;87.30
18597;DHT22;9428;50.950;6.912;2023-04-03T17:31:05;8.70;87.10
18597;DHT22;9428;50.950;6.912;2023-04-03T17:33:54;8.80;85.80
18597;DHT22;9428;50.950;6.912;2023-04-03T17:36:41;9.00;85.70
18597;DHT22;9428;50.950;6.912;2023-04-03T17:39:28;8.70;85.90
18597;DHT22;9428;50.950;6.912;2023-04-03T17:42:15;8.60;86.70
18597;DHT22;9428;50.950;6.912;2023-04-03T17:45:03;8.60;86.40
18597;DHT22;9428;50.950;6.912;2023-04-03T17:47:51;8.60;87.20
18597;DHT22;9428;50.950;6.912;2023-04-03T17:50:39;8.60;86.90
18597;DHT22;9428;50.950;6.912;2023-04-03T17:53:26;8.50;86.70
18597;DHT22;9428;50.950;6.912;2023-04-03T17:56:15;8.40;87.60
18597;DHT22;9428;50.950;6.912;2023-04-03T17:59:03;8.50;88.00
18597;DHT22;9428;50.950;6.912;2023-04-03T18:01:50;8.40;88.10
18597;DHT22;9428;50.950;6.912;2023-04-03T18:04:37;8.40;88.50
18597;DHT22;9428;50.950;6.912;2023-04-03T18:07:26;8.30;88.70
18597;DHT22;9428;50.950;6.912;2023-04-03T18:10:14;8.90;89.30
18597;DHT22;9428;50.950;6.912;2023-04-03T18:13:03;8.50;89.30
18597;DHT22;9428;50.950;6.912;2023-04-03T18:15:50;8.20;89.80
18597;DHT22;9428;50.950;6.912;2023-04-03T18:18:38;8.20;90.00
18597;DHT22;9428;50.950;6.912;2023-04-03T18:21:26;8.10;90.30
18597;DHT22;9428;50.950;6.912;2023-04-03T18:24:16;8.20;90.40
18597;DHT22;9428;50.950;6.912;2023-04-03T18:27:06;8.00;90.20
18597;DHT22;9428;50.950;6.912;2023-04-03T18:29:57;8.00;90.40
18597;DHT22;9428;50.950;6.912;2023-04-03T18:32:45;7.90;90.40